Terminal Aerodrome Forecast
Issued by NWS

Home | Current Version | Previous Version | Graphics & Text | Print | Product List | Glossary On
Versions: 1 2 3 4 5 6 7 8 9 10 11 12 13 14 15 16 17 18
000
FTUS43 KUNR 132201 AAA
TAFGCC
TAF AMD
KGCC 132201Z 1322/1418 34015KT P6SM BKN120
     FM140000 31014KT P6SM BKN050
     FM140700 32018KT 6SM -SHSN OVC020=

USA.gov is the U.S. government's official web portal to all federal, state and local government web resources and services.